sensor_id;sensor_type;location;lat;lon;timestamp;temperature;humidity
8888;DHT22;4480;52.370;9.748;2023-08-21T00:00:40;20.50;99.90
8888;DHT22;4480;52.370;9.748;2023-08-21T00:03:07;20.40;99.90
8888;DHT22;4480;52.370;9.748;2023-08-21T00:05:34;20.30;99.90
8888;DHT22;4480;52.370;9.748;2023-08-21T00:08:00;20.30;99.90
8888;DHT22;4480;52.370;9.748;2023-08-21T00:10:27;20.20;99.90
8888;DHT22;4480;52.370;9.748;2023-08-21T00:12:55;20.20;99.90
8888;DHT22;4480;52.370;9.748;2023-08-21T00:15:22;20.20;99.90
8888;DHT22;4480;52.370;9.748;2023-08-21T00:17:49;20.10;99.90
8888;DHT22;4480;52.370;9.748;2023-08-21T00:20:16;20.00;99.90
8888;DHT22;4480;52.370;9.748;2023-08-21T00:22:42;20.00;99.90
8888;DHT22;4480;52.370;9.748;2023-08-21T00:25:09;20.00;99.90
8888;DHT22;4480;52.370;9.748;2023-08-21T00:27:36;19.90;99.90
8888;DHT22;4480;52.370;9.748;2023-08-21T00:30:05;19.90;99.90
8888;DHT22;4480;52.370;9.748;2023-08-21T00:32:32;19.80;99.90
8888;DHT22;4480;52.370;9.748;2023-08-21T00:34:59;19.80;99.90
8888;DHT22;4480;52.370;9.748;2023-08-21T00:37:25;19.80;99.90
8888;DHT22;4480;52.370;9.748;2023-08-21T00:39:52;19.70;99.90
8888;DHT22;4480;52.370;9.748;2023-08-21T00:42:19;19.60;99.90
8888;DHT22;4480;52.370;9.748;2023-08-21T00:44:45;19.60;99.90
8888;DHT22;4480;52.370;9.748;2023-08-21T00:47:14;19.50;99.90
8888;DHT22;4480;52.370;9.748;2023-08-21T00:49:40;19.50;99.90
8888;DHT22;4480;52.370;9.748;2023-08-21T00:52:08;19.40;99.90
8888;DHT22;4480;52.370;9.748;2023-08-21T00:54:37;19.40;99.90
8888;DHT22;4480;52.370;9.748;2023-08-21T00:57:04;19.30;99.90
8888;DHT22;4480;52.370;9.748;2023-08-21T00:59:31;19.30;99.90
8888;DHT22;4480;52.370;9.748;2023-08-21T01:01:58;19.20;99.90
8888;DHT22;4480;52.370;9.748;2023-08-21T01:04:26;19.20;99.90
8888;DHT22;4480;52.370;9.748;2023-08-21T01:06:52;19.20;99.90
8888;DHT22;4480;52.370;9.748;2023-08-21T01:09:25;19.10;99.90
8888;DHT22;4480;52.370;9.748;2023-08-21T01:12:01;19.10;99.90
8888;DHT22;4480;52.370;9.748;2023-08-21T01:14:35;19.10;99.90
8888;DHT22;4480;52.370;9.748;2023-08-21T01:17:04;19.00;99.90
8888;DHT22;4480;52.370;9.748;2023-08-21T01:19:37;19.00;99.90
8888;DHT22;4480;52.370;9.748;2023-08-21T01:22:06;18.90;99.90
8888;DHT22;4480;52.370;9.748;2023-08-21T01:24:35;18.90;99.90
8888;DHT22;4480;52.370;9.748;2023-08-21T01:27:02;18.90;99.90
8888;DHT22;4480;52.370;9.748;2023-08-21T01:29:28;18.90;99.90
8888;DHT22;4480;52.370;9.748;2023-08-21T01:32:01;18.80;99.90
8888;DHT22;4480;52.370;9.748;2023-08-21T01:34:29;18.80;99.90
8888;DHT22;4480;52.370;9.748;2023-08-21T01:36:58;18.80;99.90
8888;DHT22;4480;52.370;9.748;2023-08-21T01:39:26;18.70;99.90
8888;DHT22;4480;52.370;9.748;2023-08-21T01:41:54;18.70;99.90
8888;DHT22;4480;52.370;9.748;2023-08-21T01:44:22;18.70;99.90
8888;DHT22;4480;52.370;9.748;2023-08-21T01:46:49;18.70;99.90
8888;DHT22;4480;52.370;9.748;2023-08-21T01:49:16;18.60;99.90
8888;DHT22;4480;52.370;9.748;2023-08-21T01:51:44;18.70;99.90
8888;DHT22;4480;52.370;9.748;2023-08-21T01:54:11;18.70;99.90
8888;DHT22;4480;52.370;9.748;2023-08-21T01:56:38;18.60;99.90
8888;DHT22;4480;52.370;9.748;2023-08-21T01:59:06;18.60;99.90
8888;DHT22;4480;52.370;9.748;2023-08-21T02:01:33;18.50;99.90
8888;DHT22;4480;52.370;9.748;2023-08-21T02:03:59;18.50;99.90
8888;DHT22;4480;52.370;9.748;2023-08-21T02:06:26;18.50;99.90
8888;DHT22;4480;52.370;9.748;2023-08-21T02:08:53;18.50;99.90
8888;DHT22;4480;52.370;9.748;2023-08-21T02:11:19;18.40;99.90
8888;DHT22;4480;52.370;9.748;2023-08-21T02:13:46;18.40;99.90
8888;DHT22;4480;52.370;9.748;2023-08-21T02:16:14;18.40;99.90
8888;DHT22;4480;52.370;9.748;2023-08-21T02:18:41;18.50;99.90
8888;DHT22;4480;52.370;9.748;2023-08-21T02:21:08;18.50;99.90
8888;DHT22;4480;52.370;9.748;2023-08-21T02:23:34;18.40;99.90
8888;DHT22;4480;52.370;9.748;2023-08-21T02:26:01;18.40;99.90
8888;DHT22;4480;52.370;9.748;2023-08-21T02:28:28;18.40;99.90
8888;DHT22;4480;52.370;9.748;2023-08-21T02:30:54;18.40;99.90
8888;DHT22;4480;52.370;9.748;2023-08-21T02:33:23;18.40;99.90
8888;DHT22;4480;52.370;9.748;2023-08-21T02:35:49;18.30;99.90
8888;DHT22;4480;52.370;9.748;2023-08-21T02:38:17;18.30;99.90
8888;DHT22;4480;52.370;9.748;2023-08-21T02:40:43;18.30;99.90
8888;DHT22;4480;52.370;9.748;2023-08-21T02:43:10;18.20;99.90
8888;DHT22;4480;52.370;9.748;2023-08-21T02:45:37;18.30;99.90
8888;DHT22;4480;52.370;9.748;2023-08-21T02:48:04;18.30;99.90
8888;DHT22;4480;52.370;9.748;2023-08-21T02:50:32;18.30;99.90
8888;DHT22;4480;52.370;9.748;2023-08-21T02:52:59;18.30;99.90
8888;DHT22;4480;52.370;9.748;2023-08-21T02:55:26;18.30;99.90
8888;DHT22;4480;52.370;9.748;2023-08-21T02:57:52;18.30;99.90
8888;DHT22;4480;52.370;9.748;2023-08-21T03:00:19;18.30;99.90
8888;DHT22;4480;52.370;9.748;2023-08-21T03:02:46;18.30;99.90
8888;DHT22;4480;52.370;9.748;2023-08-21T03:05:13;18.30;99.90
8888;DHT22;4480;52.370;9.748;2023-08-21T03:07:41;18.40;99.90
8888;DHT22;4480;52.370;9.748;2023-08-21T03:10:08;18.40;99.90
8888;DHT22;4480;52.370;9.748;2023-08-21T03:12:35;18.50;99.90
8888;DHT22;4480;52.370;9.748;2023-08-21T03:15:02;18.50;99.90
8888;DHT22;4480;52.370;9.748;2023-08-21T03:17:29;18.50;99.90
8888;DHT22;4480;52.370;9.748;2023-08-21T03:19:56;18.50;99.90
8888;DHT22;4480;52.370;9.748;2023-08-21T03:22:23;18.50;99.90
8888;DHT22;4480;52.370;9.748;2023-08-21T03:24:51;18.50;99.90
8888;DHT22;4480;52.370;9.748;2023-08-21T03:27:18;18.50;99.90
8888;DHT22;4480;52.370;9.748;2023-08-21T03:29:45;18.50;99.90
8888;DHT22;4480;52.370;9.748;2023-08-21T03:32:14;18.40;99.90
8888;DHT22;4480;52.370;9.748;2023-08-21T03:34:41;18.40;99.90
8888;DHT22;4480;52.370;9.748;2023-08-21T03:37:08;18.40;99.90
8888;DHT22;4480;52.370;9.748;2023-08-21T03:39:35;18.40;99.90
8888;DHT22;4480;52.370;9.748;2023-08-21T03:42:04;18.40;99.90
8888;DHT22;4480;52.370;9.748;2023-08-21T03:44:31;18.40;99.90
8888;DHT22;4480;52.370;9.748;2023-08-21T03:46:59;18.40;99.90
8888;DHT22;4480;52.370;9.748;2023-08-21T03:49:25;18.40;99.90
8888;DHT22;4480;52.370;9.748;2023-08-21T03:51:52;18.40;99.90
8888;DHT22;4480;52.370;9.748;2023-08-21T03:54:19;18.40;99.90
8888;DHT22;4480;52.370;9.748;2023-08-21T03:56:45;18.40;99.90
8888;DHT22;4480;52.370;9.748;2023-08-21T03:59:13;18.40;99.90
8888;DHT22;4480;52.370;9.748;2023-08-21T04:01:40;18.40;99.90
8888;DHT22;4480;52.370;9.748;2023-08-21T04:04:07;18.40;99.90
8888;DHT22;4480;52.370;9.748;2023-08-21T04:06:34;18.40;99.90
8888;DHT22;4480;52.370;9.748;2023-08-21T04:12:07;18.40;99.90
8888;DHT22;4480;52.370;9.748;2023-08-21T04:14:34;18.40;99.90
8888;DHT22;4480;52.370;9.748;2023-08-21T04:17:01;18.40;99.90
8888;DHT22;4480;52.370;9.748;2023-08-21T04:19:28;18.50;99.90
8888;DHT22;4480;52.370;9.748;2023-08-21T04:21:58;18.50;99.90
8888;DHT22;4480;52.370;9.748;2023-08-21T04:24:25;18.50;99.90
8888;DHT22;4480;52.370;9.748;2023-08-21T04:26:52;18.50;99.90
8888;DHT22;4480;52.370;9.748;2023-08-21T04:29:20;18.50;99.90
8888;DHT22;4480;52.370;9.748;2023-08-21T04:31:46;18.50;99.90
8888;DHT22;4480;52.370;9.748;2023-08-21T04:34:13;18.60;99.90
8888;DHT22;4480;52.370;9.748;2023-08-21T04:36:40;18.60;99.90
8888;DHT22;4480;52.370;9.748;2023-08-21T04:39:07;18.60;99.90
8888;DHT22;4480;52.370;9.748;2023-08-21T04:41:34;18.60;99.90
8888;DHT22;4480;52.370;9.748;2023-08-21T04:44:01;18.60;99.90
8888;DHT22;4480;52.370;9.748;2023-08-21T04:46:29;18.60;99.90
8888;DHT22;4480;52.370;9.748;2023-08-21T04:48:56;18.60;99.90
8888;DHT22;4480;52.370;9.748;2023-08-21T04:51:23;18.60;99.90
8888;DHT22;4480;52.370;9.748;2023-08-21T04:53:50;18.70;99.90
8888;DHT22;4480;52.370;9.748;2023-08-21T04:56:16;18.70;99.90
8888;DHT22;4480;52.370;9.748;2023-08-21T04:58:43;18.90;99.90
8888;DHT22;4480;52.370;9.748;2023-08-21T05:01:10;19.00;99.90
8888;DHT22;4480;52.370;9.748;2023-08-21T05:03:38;19.20;99.90
8888;DHT22;4480;52.370;9.748;2023-08-21T05:06:05;19.40;99.90
8888;DHT22;4480;52.370;9.748;2023-08-21T05:08:32;19.60;99.90
8888;DHT22;4480;52.370;9.748;2023-08-21T05:10:59;19.60;99.90
8888;DHT22;4480;52.370;9.748;2023-08-21T05:13:26;19.70;99.90
8888;DHT22;4480;52.370;9.748;2023-08-21T05:15:54;19.70;99.90
8888;DHT22;4480;52.370;9.748;2023-08-21T05:18:22;19.70;99.90
8888;DHT22;4480;52.370;9.748;2023-08-21T05:20:53;19.60;99.90
8888;DHT22;4480;52.370;9.748;2023-08-21T05:23:20;19.60;99.90
8888;DHT22;4480;52.370;9.748;2023-08-21T05:25:48;19.50;99.90
8888;DHT22;4480;52.370;9.748;2023-08-21T05:28:15;19.40;99.90
8888;DHT22;4480;52.370;9.748;2023-08-21T05:30:42;19.30;99.90
8888;DHT22;4480;52.370;9.748;2023-08-21T05:33:08;19.20;99.90
8888;DHT22;4480;52.370;9.748;2023-08-21T05:35:36;19.10;99.90
8888;DHT22;4480;52.370;9.748;2023-08-21T05:38:05;19.10;99.90
8888;DHT22;4480;52.370;9.748;2023-08-21T05:40:32;19.20;99.90
8888;DHT22;4480;52.370;9.748;2023-08-21T05:42:58;19.20;99.90
8888;DHT22;4480;52.370;9.748;2023-08-21T05:45:25;19.30;99.90
8888;DHT22;4480;52.370;9.748;2023-08-21T05:47:52;19.40;99.90
8888;DHT22;4480;52.370;9.748;2023-08-21T05:50:19;19.50;99.90
8888;DHT22;4480;52.370;9.748;2023-08-21T05:52:45;19.60;99.90
8888;DHT22;4480;52.370;9.748;2023-08-21T05:55:14;19.70;99.90
8888;DHT22;4480;52.370;9.748;2023-08-21T05:57:40;19.70;99.90
8888;DHT22;4480;52.370;9.748;2023-08-21T06:00:08;19.80;99.90
8888;DHT22;4480;52.370;9.748;2023-08-21T06:02:35;19.90;99.90
8888;DHT22;4480;52.370;9.748;2023-08-21T06:05:02;20.00;99.90
8888;DHT22;4480;52.370;9.748;2023-08-21T06:07:29;20.20;99.90
8888;DHT22;4480;52.370;9.748;2023-08-21T06:09:56;20.40;99.90
8888;DHT22;4480;52.370;9.748;2023-08-21T06:12:24;20.60;99.90
8888;DHT22;4480;52.370;9.748;2023-08-21T06:14:51;20.90;99.90
8888;DHT22;4480;52.370;9.748;2023-08-21T06:17:18;21.10;99.90
8888;DHT22;4480;52.370;9.748;2023-08-21T06:19:45;21.30;99.90
8888;DHT22;4480;52.370;9.748;2023-08-21T06:22:11;21.40;99.90
8888;DHT22;4480;52.370;9.748;2023-08-21T06:24:38;21.50;99.90
8888;DHT22;4480;52.370;9.748;2023-08-21T06:27:05;21.50;99.90
8888;DHT22;4480;52.370;9.748;2023-08-21T06:29:33;21.50;99.90
8888;DHT22;4480;52.370;9.748;2023-08-21T06:32:00;21.50;99.90
8888;DHT22;4480;52.370;9.748;2023-08-21T06:34:27;21.50;99.90
8888;DHT22;4480;52.370;9.748;2023-08-21T06:36:54;21.60;99.90
8888;DHT22;4480;52.370;9.748;2023-08-21T06:39:20;21.70;99.90
8888;DHT22;4480;52.370;9.748;2023-08-21T06:41:47;21.80;99.90
8888;DHT22;4480;52.370;9.748;2023-08-21T06:44:14;21.80;99.90
8888;DHT22;4480;52.370;9.748;2023-08-21T06:46:42;21.90;99.90
8888;DHT22;4480;52.370;9.748;2023-08-21T06:49:09;22.10;99.90
8888;DHT22;4480;52.370;9.748;2023-08-21T06:51:36;22.20;99.90
8888;DHT22;4480;52.370;9.748;2023-08-21T06:54:02;22.30;99.90
8888;DHT22;4480;52.370;9.748;2023-08-21T06:56:29;22.40;99.70
8888;DHT22;4480;52.370;9.748;2023-08-21T06:58:56;22.50;99.20
8888;DHT22;4480;52.370;9.748;2023-08-21T07:01:23;22.70;98.40
8888;DHT22;4480;52.370;9.748;2023-08-21T07:03:51;22.60;97.70
8888;DHT22;4480;52.370;9.748;2023-08-21T07:06:18;22.60;97.40
8888;DHT22;4480;52.370;9.748;2023-08-21T07:08:45;22.50;97.20
8888;DHT22;4480;52.370;9.748;2023-08-21T07:11:11;22.40;97.10
8888;DHT22;4480;52.370;9.748;2023-08-21T07:13:39;22.30;97.20
8888;DHT22;4480;52.370;9.748;2023-08-21T07:16:05;22.30;97.20
8888;DHT22;4480;52.370;9.748;2023-08-21T07:18:35;22.30;96.80
8888;DHT22;4480;52.370;9.748;2023-08-21T07:21:03;22.30;96.00
8888;DHT22;4480;52.370;9.748;2023-08-21T07:23:30;22.30;95.70
8888;DHT22;4480;52.370;9.748;2023-08-21T07:25:57;22.40;95.50
8888;DHT22;4480;52.370;9.748;2023-08-21T07:28:24;22.40;95.20
8888;DHT22;4480;52.370;9.748;2023-08-21T07:30:55;22.50;95.00
8888;DHT22;4480;52.370;9.748;2023-08-21T07:33:22;22.60;94.50
8888;DHT22;4480;52.370;9.748;2023-08-21T07:35:57;22.80;94.10
8888;DHT22;4480;52.370;9.748;2023-08-21T07:38:25;22.90;92.70
8888;DHT22;4480;52.370;9.748;2023-08-21T07:41:02;22.90;92.10
8888;DHT22;4480;52.370;9.748;2023-08-21T07:43:28;22.90;91.80
8888;DHT22;4480;52.370;9.748;2023-08-21T07:45:55;22.80;91.70
8888;DHT22;4480;52.370;9.748;2023-08-21T07:48:22;22.90;91.50
8888;DHT22;4480;52.370;9.748;2023-08-21T07:50:51;22.90;91.20
8888;DHT22;4480;52.370;9.748;2023-08-21T07:53:18;23.00;91.10
8888;DHT22;4480;52.370;9.748;2023-08-21T07:55:46;23.20;91.00
8888;DHT22;4480;52.370;9.748;2023-08-21T07:58:13;23.40;90.60
8888;DHT22;4480;52.370;9.748;2023-08-21T08:00:40;23.60;90.00
8888;DHT22;4480;52.370;9.748;2023-08-21T08:03:08;23.80;88.50
8888;DHT22;4480;52.370;9.748;2023-08-21T08:05:35;24.10;86.80
8888;DHT22;4480;52.370;9.748;2023-08-21T08:08:02;24.30;84.40
8888;DHT22;4480;52.370;9.748;2023-08-21T08:10:29;24.40;82.90
8888;DHT22;4480;52.370;9.748;2023-08-21T08:12:57;24.50;81.50
8888;DHT22;4480;52.370;9.748;2023-08-21T08:15:23;24.60;80.00
8888;DHT22;4480;52.370;9.748;2023-08-21T08:17:50;24.60;79.50
8888;DHT22;4480;52.370;9.748;2023-08-21T08:20:18;24.70;79.10
8888;DHT22;4480;52.370;9.748;2023-08-21T08:22:45;24.80;78.70
8888;DHT22;4480;52.370;9.748;2023-08-21T08:25:12;24.90;77.70
8888;DHT22;4480;52.370;9.748;2023-08-21T08:27:39;25.00;76.60
8888;DHT22;4480;52.370;9.748;2023-08-21T08:30:08;25.00;76.00
8888;DHT22;4480;52.370;9.748;2023-08-21T08:32:35;25.10;75.30
8888;DHT22;4480;52.370;9.748;2023-08-21T08:35:02;25.20;74.40
8888;DHT22;4480;52.370;9.748;2023-08-21T08:37:29;25.40;73.30
8888;DHT22;4480;52.370;9.748;2023-08-21T08:39:56;25.60;72.20
8888;DHT22;4480;52.370;9.748;2023-08-21T08:42:23;25.70;70.80
8888;DHT22;4480;52.370;9.748;2023-08-21T08:44:50;25.70;69.20
8888;DHT22;4480;52.370;9.748;2023-08-21T08:47:21;25.80;67.80
8888;DHT22;4480;52.370;9.748;2023-08-21T08:49:49;26.00;65.70
8888;DHT22;4480;52.370;9.748;2023-08-21T08:52:16;26.00;64.50
8888;DHT22;4480;52.370;9.748;2023-08-21T08:54:45;25.90;63.20
8888;DHT22;4480;52.370;9.748;2023-08-21T08:57:13;25.90;62.40
8888;DHT22;4480;52.370;9.748;2023-08-21T08:59:40;25.70;60.70
8888;DHT22;4480;52.370;9.748;2023-08-21T09:02:07;25.70;60.00
8888;DHT22;4480;52.370;9.748;2023-08-21T09:04:35;25.70;59.90
8888;DHT22;4480;52.370;9.748;2023-08-21T09:07:12;25.70;60.10
8888;DHT22;4480;52.370;9.748;2023-08-21T09:09:39;25.70;60.70
8888;DHT22;4480;52.370;9.748;2023-08-21T09:12:11;25.80;60.90
8888;DHT22;4480;52.370;9.748;2023-08-21T09:14:39;26.00;61.00
8888;DHT22;4480;52.370;9.748;2023-08-21T09:17:07;26.10;60.80
8888;DHT22;4480;52.370;9.748;2023-08-21T09:19:35;26.00;60.40
8888;DHT22;4480;52.370;9.748;2023-08-21T09:22:08;26.10;60.30
8888;DHT22;4480;52.370;9.748;2023-08-21T09:24:35;26.20;60.10
8888;DHT22;4480;52.370;9.748;2023-08-21T09:27:02;26.30;59.80
8888;DHT22;4480;52.370;9.748;2023-08-21T09:29:38;26.40;59.20
8888;DHT22;4480;52.370;9.748;2023-08-21T09:32:05;26.50;58.50
8888;DHT22;4480;52.370;9.748;2023-08-21T09:34:35;26.50;58.30
8888;DHT22;4480;52.370;9.748;2023-08-21T09:37:05;26.50;58.30
8888;DHT22;4480;52.370;9.748;2023-08-21T09:39:33;26.60;58.20
8888;DHT22;4480;52.370;9.748;2023-08-21T09:42:01;26.70;57.90
8888;DHT22;4480;52.370;9.748;2023-08-21T09:44:28;26.80;57.90
8888;DHT22;4480;52.370;9.748;2023-08-21T09:46:55;26.70;57.90
8888;DHT22;4480;52.370;9.748;2023-08-21T09:49:23;26.70;57.90
8888;DHT22;4480;52.370;9.748;2023-08-21T09:51:51;26.80;57.90
8888;DHT22;4480;52.370;9.748;2023-08-21T09:54:20;26.80;57.50
8888;DHT22;4480;52.370;9.748;2023-08-21T09:56:49;27.00;57.20
8888;DHT22;4480;52.370;9.748;2023-08-21T09:59:17;27.10;56.80
8888;DHT22;4480;52.370;9.748;2023-08-21T10:01:45;27.20;56.50
8888;DHT22;4480;52.370;9.748;2023-08-21T10:04:13;27.20;56.50
8888;DHT22;4480;52.370;9.748;2023-08-21T10:06:40;27.10;56.60
8888;DHT22;4480;52.370;9.748;2023-08-21T10:09:09;27.10;56.60
8888;DHT22;4480;52.370;9.748;2023-08-21T10:11:36;27.10;56.10
8888;DHT22;4480;52.370;9.748;2023-08-21T10:14:03;27.10;55.50
8888;DHT22;4480;52.370;9.748;2023-08-21T10:16:30;27.10;54.80
8888;DHT22;4480;52.370;9.748;2023-08-21T10:19:03;27.20;53.60
8888;DHT22;4480;52.370;9.748;2023-08-21T10:21:35;27.20;52.70
8888;DHT22;4480;52.370;9.748;2023-08-21T10:24:02;27.00;51.20
8888;DHT22;4480;52.370;9.748;2023-08-21T10:26:30;26.70;50.10
8888;DHT22;4480;52.370;9.748;2023-08-21T10:28:59;26.60;49.90
8888;DHT22;4480;52.370;9.748;2023-08-21T10:31:32;26.40;49.30
8888;DHT22;4480;52.370;9.748;2023-08-21T10:34:01;26.30;49.50
8888;DHT22;4480;52.370;9.748;2023-08-21T10:36:39;26.40;49.70
8888;DHT22;4480;52.370;9.748;2023-08-21T10:39:13;26.50;49.70
8888;DHT22;4480;52.370;9.748;2023-08-21T10:41:53;26.50;49.90
8888;DHT22;4480;52.370;9.748;2023-08-21T10:44:34;26.40;50.20
8888;DHT22;4480;52.370;9.748;2023-08-21T10:47:14;26.30;50.60
8888;DHT22;4480;52.370;9.748;2023-08-21T10:49:42;26.30;51.00
8888;DHT22;4480;52.370;9.748;2023-08-21T10:52:09;26.60;51.10
8888;DHT22;4480;52.370;9.748;2023-08-21T10:54:46;26.90;50.30
8888;DHT22;4480;52.370;9.748;2023-08-21T10:57:15;27.30;49.10
8888;DHT22;4480;52.370;9.748;2023-08-21T10:59:55;27.50;48.40
8888;DHT22;4480;52.370;9.748;2023-08-21T11:02:23;27.90;47.90
8888;DHT22;4480;52.370;9.748;2023-08-21T11:04:50;28.40;47.80
8888;DHT22;4480;52.370;9.748;2023-08-21T11:07:18;28.60;46.80
8888;DHT22;4480;52.370;9.748;2023-08-21T11:09:45;28.70;46.60
8888;DHT22;4480;52.370;9.748;2023-08-21T11:12:14;28.70;46.50
8888;DHT22;4480;52.370;9.748;2023-08-21T11:14:42;28.70;46.50
8888;DHT22;4480;52.370;9.748;2023-08-21T11:17:09;28.60;46.50
8888;DHT22;4480;52.370;9.748;2023-08-21T11:19:37;28.70;46.50
8888;DHT22;4480;52.370;9.748;2023-08-21T11:22:04;28.70;46.40
8888;DHT22;4480;52.370;9.748;2023-08-21T11:24:47;28.70;46.60
8888;DHT22;4480;52.370;9.748;2023-08-21T11:27:17;28.50;46.80
8888;DHT22;4480;52.370;9.748;2023-08-21T11:29:45;28.40;47.00
8888;DHT22;4480;52.370;9.748;2023-08-21T11:32:13;28.20;47.20
8888;DHT22;4480;52.370;9.748;2023-08-21T11:34:41;28.10;47.70
8888;DHT22;4480;52.370;9.748;2023-08-21T11:37:08;27.80;48.20
8888;DHT22;4480;52.370;9.748;2023-08-21T11:39:43;27.60;48.60
8888;DHT22;4480;52.370;9.748;2023-08-21T11:42:11;27.70;48.70
8888;DHT22;4480;52.370;9.748;2023-08-21T11:44:49;27.70;48.70
8888;DHT22;4480;52.370;9.748;2023-08-21T11:47:17;27.80;49.00
8888;DHT22;4480;52.370;9.748;2023-08-21T11:49:45;27.70;49.20
8888;DHT22;4480;52.370;9.748;2023-08-21T11:52:18;27.60;49.30
8888;DHT22;4480;52.370;9.748;2023-08-21T11:54:47;27.50;49.40
8888;DHT22;4480;52.370;9.748;2023-08-21T11:57:15;27.30;49.20
8888;DHT22;4480;52.370;9.748;2023-08-21T11:59:41;27.30;49.30
8888;DHT22;4480;52.370;9.748;2023-08-21T12:02:14;27.30;49.20
8888;DHT22;4480;52.370;9.748;2023-08-21T12:04:41;27.30;49.30
8888;DHT22;4480;52.370;9.748;2023-08-21T12:07:08;27.30;49.40
8888;DHT22;4480;52.370;9.748;2023-08-21T12:09:35;27.20;49.50
8888;DHT22;4480;52.370;9.748;2023-08-21T12:12:02;27.20;49.90
8888;DHT22;4480;52.370;9.748;2023-08-21T12:14:29;27.20;50.10
8888;DHT22;4480;52.370;9.748;2023-08-21T12:16:56;27.10;50.20
8888;DHT22;4480;52.370;9.748;2023-08-21T12:19:24;27.20;50.10
8888;DHT22;4480;52.370;9.748;2023-08-21T12:21:51;27.60;49.50
8888;DHT22;4480;52.370;9.748;2023-08-21T12:24:18;27.60;49.10
8888;DHT22;4480;52.370;9.748;2023-08-21T12:26:45;27.60;49.10
8888;DHT22;4480;52.370;9.748;2023-08-21T12:29:11;27.40;49.20
8888;DHT22;4480;52.370;9.748;2023-08-21T12:31:38;27.50;49.20
8888;DHT22;4480;52.370;9.748;2023-08-21T12:34:05;27.60;49.10
8888;DHT22;4480;52.370;9.748;2023-08-21T12:36:35;27.60;48.80
8888;DHT22;4480;52.370;9.748;2023-08-21T12:39:03;27.80;48.50
8888;DHT22;4480;52.370;9.748;2023-08-21T12:41:30;27.90;48.10
8888;DHT22;4480;52.370;9.748;2023-08-21T12:43:58;27.90;47.90
8888;DHT22;4480;52.370;9.748;2023-08-21T12:46:25;27.90;47.80
8888;DHT22;4480;52.370;9.748;2023-08-21T12:48:53;28.00;47.80
8888;DHT22;4480;52.370;9.748;2023-08-21T12:51:19;28.10;47.40
8888;DHT22;4480;52.370;9.748;2023-08-21T12:53:48;28.30;46.90
8888;DHT22;4480;52.370;9.748;2023-08-21T12:56:14;28.30;46.60
8888;DHT22;4480;52.370;9.748;2023-08-21T12:58:41;28.10;46.50
8888;DHT22;4480;52.370;9.748;2023-08-21T13:01:08;28.00;46.20
8888;DHT22;4480;52.370;9.748;2023-08-21T13:03:35;28.00;45.90
8888;DHT22;4480;52.370;9.748;2023-08-21T13:06:02;27.90;45.70
8888;DHT22;4480;52.370;9.748;2023-08-21T13:08:29;27.90;46.30
8888;DHT22;4480;52.370;9.748;2023-08-21T13:10:57;27.80;45.80
8888;DHT22;4480;52.370;9.748;2023-08-21T13:13:24;27.70;45.80
8888;DHT22;4480;52.370;9.748;2023-08-21T13:15:51;27.80;45.70
8888;DHT22;4480;52.370;9.748;2023-08-21T13:18:19;27.80;45.40
8888;DHT22;4480;52.370;9.748;2023-08-21T13:20:46;27.80;45.20
8888;DHT22;4480;52.370;9.748;2023-08-21T13:23:12;27.70;45.20
8888;DHT22;4480;52.370;9.748;2023-08-21T13:25:39;27.70;45.00
8888;DHT22;4480;52.370;9.748;2023-08-21T13:28:07;27.80;44.80
8888;DHT22;4480;52.370;9.748;2023-08-21T13:30:34;27.90;44.60
8888;DHT22;4480;52.370;9.748;2023-08-21T13:33:01;28.00;44.40
8888;DHT22;4480;52.370;9.748;2023-08-21T13:35:29;28.00;44.30
8888;DHT22;4480;52.370;9.748;2023-08-21T13:37:56;28.00;44.30
8888;DHT22;4480;52.370;9.748;2023-08-21T13:40:23;27.90;44.30
8888;DHT22;4480;52.370;9.748;2023-08-21T13:42:50;27.90;44.30
8888;DHT22;4480;52.370;9.748;2023-08-21T13:45:19;27.90;44.30
8888;DHT22;4480;52.370;9.748;2023-08-21T13:47:48;27.80;44.20
8888;DHT22;4480;52.370;9.748;2023-08-21T13:50:16;27.80;44.30
8888;DHT22;4480;52.370;9.748;2023-08-21T13:52:43;27.90;44.30
8888;DHT22;4480;52.370;9.748;2023-08-21T13:55:10;27.90;44.30
8888;DHT22;4480;52.370;9.748;2023-08-21T13:57:37;27.90;44.40
8888;DHT22;4480;52.370;9.748;2023-08-21T14:00:05;27.90;44.70
8888;DHT22;4480;52.370;9.748;2023-08-21T14:02:35;27.90;44.90
8888;DHT22;4480;52.370;9.748;2023-08-21T14:05:02;27.90;45.10
8888;DHT22;4480;52.370;9.748;2023-08-21T14:07:30;27.90;45.40
8888;DHT22;4480;52.370;9.748;2023-08-21T14:09:56;27.90;45.60
8888;DHT22;4480;52.370;9.748;2023-08-21T14:12:23;27.80;45.50
8888;DHT22;4480;52.370;9.748;2023-08-21T14:14:50;27.70;45.30
8888;DHT22;4480;52.370;9.748;2023-08-21T14:17:17;27.70;45.10
8888;DHT22;4480;52.370;9.748;2023-08-21T14:19:45;27.60;45.00
8888;DHT22;4480;52.370;9.748;2023-08-21T14:22:12;27.60;44.80
8888;DHT22;4480;52.370;9.748;2023-08-21T14:24:38;27.60;44.30
8888;DHT22;4480;52.370;9.748;2023-08-21T14:27:05;27.60;44.30
8888;DHT22;4480;52.370;9.748;2023-08-21T14:29:32;27.60;44.40
8888;DHT22;4480;52.370;9.748;2023-08-21T14:31:59;27.60;44.40
8888;DHT22;4480;52.370;9.748;2023-08-21T14:34:26;27.60;44.80
8888;DHT22;4480;52.370;9.748;2023-08-21T14:36:54;27.60;45.50
8888;DHT22;4480;52.370;9.748;2023-08-21T14:39:22;27.70;46.00
8888;DHT22;4480;52.370;9.748;2023-08-21T14:41:54;27.70;46.10
8888;DHT22;4480;52.370;9.748;2023-08-21T14:44:20;27.70;46.20
8888;DHT22;4480;52.370;9.748;2023-08-21T14:46:47;27.60;46.10
8888;DHT22;4480;52.370;9.748;2023-08-21T14:49:14;27.60;46.10
8888;DHT22;4480;52.370;9.748;2023-08-21T14:51:41;27.60;45.90
8888;DHT22;4480;52.370;9.748;2023-08-21T14:54:09;27.60;45.40
8888;DHT22;4480;52.370;9.748;2023-08-21T14:56:35;27.60;45.10
8888;DHT22;4480;52.370;9.748;2023-08-21T14:59:02;27.70;44.90
8888;DHT22;4480;52.370;9.748;2023-08-21T15:01:29;27.70;44.60
8888;DHT22;4480;52.370;9.748;2023-08-21T15:03:56;27.70;44.50
8888;DHT22;4480;52.370;9.748;2023-08-21T15:06:22;27.70;45.20
8888;DHT22;4480;52.370;9.748;2023-08-21T15:08:49;27.80;44.80
8888;DHT22;4480;52.370;9.748;2023-08-21T15:11:17;27.90;45.00
8888;DHT22;4480;52.370;9.748;2023-08-21T15:13:44;28.00;45.00
8888;DHT22;4480;52.370;9.748;2023-08-21T15:16:11;28.00;44.70
8888;DHT22;4480;52.370;9.748;2023-08-21T15:18:37;28.10;44.70
8888;DHT22;4480;52.370;9.748;2023-08-21T15:21:04;28.10;45.30
8888;DHT22;4480;52.370;9.748;2023-08-21T15:23:31;28.10;44.70
8888;DHT22;4480;52.370;9.748;2023-08-21T15:25:57;28.00;44.60
8888;DHT22;4480;52.370;9.748;2023-08-21T15:28:26;27.80;45.00
8888;DHT22;4480;52.370;9.748;2023-08-21T15:30:52;27.80;45.20
8888;DHT22;4480;52.370;9.748;2023-08-21T15:33:19;28.00;45.40
8888;DHT22;4480;52.370;9.748;2023-08-21T15:35:46;28.00;45.30
8888;DHT22;4480;52.370;9.748;2023-08-21T15:38:12;28.10;45.30
8888;DHT22;4480;52.370;9.748;2023-08-21T15:40:39;28.10;45.30
8888;DHT22;4480;52.370;9.748;2023-08-21T15:43:07;27.90;45.50
8888;DHT22;4480;52.370;9.748;2023-08-21T15:45:35;27.80;45.90
8888;DHT22;4480;52.370;9.748;2023-08-21T15:48:02;27.70;46.10
8888;DHT22;4480;52.370;9.748;2023-08-21T15:50:30;27.60;46.20
8888;DHT22;4480;52.370;9.748;2023-08-21T15:52:57;27.50;46.40
8888;DHT22;4480;52.370;9.748;2023-08-21T15:55:23;27.50;46.50
8888;DHT22;4480;52.370;9.748;2023-08-21T15:57:50;27.50;46.50
8888;DHT22;4480;52.370;9.748;2023-08-21T16:00:18;27.60;46.40
8888;DHT22;4480;52.370;9.748;2023-08-21T16:02:48;27.60;46.20
8888;DHT22;4480;52.370;9.748;2023-08-21T16:05:15;27.60;46.00
8888;DHT22;4480;52.370;9.748;2023-08-21T16:07:42;27.50;46.10